Big Coppitt Key, Florida
Current Conditions -  °F | °C
As of 11:53 PM on Monday 22 Dec 2014 (Local Time) from KNQX Reporting Station
Few Clouds Few Clouds  
Wind Chill: 76°   Ceiling: Unl
Heat Index: 76°   Visibility: 10mi
Dew Point: 72°   Wind: 10mph
Humidity: 87%   Direction: 150°SSE
Pressure: 29.95"   Gusts: NA
Location:  24.6°N, 81.66°W
Report Text: KNQX 230453Z AUTO 15009KT 10SM FEW015 24/22 A2995 RMK AO2 SLP141 T02440222 402780233
Loading
Personal Weather Stations






























Interactive Weather Map New forecast layout! Learn more

10-Day Weather Forecast

Advertisements
Track Severe Weather on mobile